sensor_id;sensor_type;location;lat;lon;timestamp;pressure;altitude;pressure_sealevel;temperature;humidity
64739;BME280;51175;51.186;0.276;2023-08-08T00:00:14;101336.59;;;21.88;51.36
64739;BME280;51175;51.186;0.276;2023-08-08T00:00:44;101341.19;;;21.87;51.49
64739;BME280;51175;51.186;0.276;2023-08-08T00:01:15;101337.69;;;21.87;51.37
64739;BME280;51175;51.186;0.276;2023-08-08T00:01:45;101339.59;;;21.86;51.44
64739;BME280;51175;51.186;0.276;2023-08-08T00:02:16;101336.91;;;21.86;51.42
64739;BME280;51175;51.186;0.276;2023-08-08T00:02:46;101333.44;;;21.86;51.60
64739;BME280;51175;51.186;0.276;2023-08-08T00:03:16;101336.91;;;21.86;51.38
64739;BME280;51175;51.186;0.276;2023-08-08T00:03:47;101335.31;;;21.85;51.53
64739;BME280;51175;51.186;0.276;2023-08-08T00:04:17;101335.31;;;21.85;51.47
64739;BME280;51175;51.186;0.276;2023-08-08T00:04:49;101338.00;;;21.85;51.54
64739;BME280;51175;51.186;0.276;2023-08-08T00:05:20;101331.84;;;21.85;51.45
64739;BME280;51175;51.186;0.276;2023-08-08T00:05:51;101341.81;;;21.84;51.42
64739;BME280;51175;51.186;0.276;2023-08-08T00:06:21;101331.06;;;21.84;51.56
64739;BME280;51175;51.186;0.276;2023-08-08T00:06:51;101340.69;;;21.85;51.40
64739;BME280;51175;51.186;0.276;2023-08-08T00:07:22;101334.84;;;21.83;51.30
64739;BME280;51175;51.186;0.276;2023-08-08T00:07:52;101329.47;;;21.83;51.29
64739;BME280;51175;51.186;0.276;2023-08-08T00:08:22;101339.44;;;21.82;51.44
64739;BME280;51175;51.186;0.276;2023-08-08T00:08:53;101341.31;;;21.82;51.38
64739;BME280;51175;51.186;0.276;2023-08-08T00:09:23;101331.38;;;21.82;51.46
64739;BME280;51175;51.186;0.276;2023-08-08T00:09:53;101334.84;;;21.83;51.41
64739;BME280;51175;51.186;0.276;2023-08-08T00:10:24;101335.19;;;21.81;51.47
64739;BME280;51175;51.186;0.276;2023-08-08T00:10:54;101344.00;;;21.82;51.45
64739;BME280;51175;51.186;0.276;2023-08-08T00:11:25;101337.88;;;21.81;51.40
64739;BME280;51175;51.186;0.276;2023-08-08T00:11:55;101337.88;;;21.81;51.44
64739;BME280;51175;51.186;0.276;2023-08-08T00:12:27;101337.88;;;21.81;51.45
64739;BME280;51175;51.186;0.276;2023-08-08T00:12:58;101335.19;;;21.81;51.49
64739;BME280;51175;51.186;0.276;2023-08-08T00:13:28;101335.19;;;21.81;51.44
64739;BME280;51175;51.186;0.276;2023-08-08T00:13:58;101340.56;;;21.81;51.27
64739;BME280;51175;51.186;0.276;2023-08-08T00:14:29;101332.81;;;21.80;51.40
64739;BME280;51175;51.186;0.276;2023-08-08T00:14:59;101336.25;;;21.80;51.49
64739;BME280;51175;51.186;0.276;2023-08-08T00:15:30;101336.25;;;21.80;51.29
64739;BME280;51175;51.186;0.276;2023-08-08T00:16:00;101334.69;;;21.79;51.58
64739;BME280;51175;51.186;0.276;2023-08-08T00:16:31;101330.44;;;21.78;51.41
64739;BME280;51175;51.186;0.276;2023-08-08T00:17:01;101335.81;;;21.78;51.54
64739;BME280;51175;51.186;0.276;2023-08-08T00:17:31;101327.75;;;21.78;51.36
64739;BME280;51175;51.186;0.276;2023-08-08T00:18:02;101329.63;;;21.78;51.42
64739;BME280;51175;51.186;0.276;2023-08-08T00:18:32;101331.53;;;21.77;51.23
64739;BME280;51175;51.186;0.276;2023-08-08T00:19:03;101328.84;;;21.77;51.43
64739;BME280;51175;51.186;0.276;2023-08-08T00:19:33;101340.38;;;21.78;51.46
64739;BME280;51175;51.186;0.276;2023-08-08T00:20:05;101329.91;;;21.76;51.20
64739;BME280;51175;51.186;0.276;2023-08-08T00:20:35;101330.75;;;21.77;51.38
64739;BME280;51175;51.186;0.276;2023-08-08T00:21:05;101329.13;;;21.76;51.37
64739;BME280;51175;51.186;0.276;2023-08-08T00:21:36;101330.22;;;21.75;51.46
64739;BME280;51175;51.186;0.276;2023-08-08T00:22:06;101336.41;;;21.75;51.25
64739;BME280;51175;51.186;0.276;2023-08-08T00:22:37;101332.91;;;21.75;51.35
64739;BME280;51175;51.186;0.276;2023-08-08T00:23:07;101327.53;;;21.75;51.30
64739;BME280;51175;51.186;0.276;2023-08-08T00:23:38;101330.22;;;21.75;51.44
64739;BME280;51175;51.186;0.276;2023-08-08T00:24:08;101327.53;;;21.75;51.13
64739;BME280;51175;51.186;0.276;2023-08-08T00:24:38;101331.34;;;21.74;51.45
64739;BME280;51175;51.186;0.276;2023-08-08T00:25:09;101331.34;;;21.74;51.30
64739;BME280;51175;51.186;0.276;2023-08-08T00:25:39;101326.75;;;21.74;51.29
64739;BME280;51175;51.186;0.276;2023-08-08T00:26:09;101329.44;;;21.74;51.33
64739;BME280;51175;51.186;0.276;2023-08-08T00:26:40;101330.56;;;21.73;51.28
64739;BME280;51175;51.186;0.276;2023-08-08T00:27:10;101329.75;;;21.73;51.11
64739;BME280;51175;51.186;0.276;2023-08-08T00:27:40;101331.66;;;21.72;51.16
64739;BME280;51175;51.186;0.276;2023-08-08T00:28:12;101331.66;;;21.72;51.22
64739;BME280;51175;51.186;0.276;2023-08-08T00:28:42;101325.50;;;21.71;51.06
64739;BME280;51175;51.186;0.276;2023-08-08T00:29:12;101328.50;;;21.70;51.38
64739;BME280;51175;51.186;0.276;2023-08-08T00:29:43;101329.28;;;21.70;51.24
64739;BME280;51175;51.186;0.276;2023-08-08T00:30:13;101323.13;;;21.70;51.17
64739;BME280;51175;51.186;0.276;2023-08-08T00:30:44;101327.69;;;21.69;51.16
64739;BME280;51175;51.186;0.276;2023-08-08T00:31:14;101321.53;;;21.69;51.29
64739;BME280;51175;51.186;0.276;2023-08-08T00:31:47;101326.91;;;21.69;51.29
64739;BME280;51175;51.186;0.276;2023-08-08T00:32:18;101322.31;;;21.69;51.46
64739;BME280;51175;51.186;0.276;2023-08-08T00:32:48;101318.84;;;21.69;51.03
64739;BME280;51175;51.186;0.276;2023-08-08T00:33:18;101318.84;;;21.69;51.29
64739;BME280;51175;51.186;0.276;2023-08-08T00:33:49;101321.53;;;21.69;51.34
64739;BME280;51175;51.186;0.276;2023-08-08T00:34:19;101318.84;;;21.69;51.07
64739;BME280;51175;51.186;0.276;2023-08-08T00:34:49;101320.75;;;21.68;51.34
64739;BME280;51175;51.186;0.276;2023-08-08T00:35:20;101327.22;;;21.67;51.29
64739;BME280;51175;51.186;0.276;2023-08-08T00:35:50;101324.53;;;21.67;51.24
64739;BME280;51175;51.186;0.276;2023-08-08T00:36:20;101326.44;;;21.67;51.17
64739;BME280;51175;51.186;0.276;2023-08-08T00:36:51;101319.47;;;21.66;51.27
64739;BME280;51175;51.186;0.276;2023-08-08T00:37:21;101321.06;;;21.67;50.97
64739;BME280;51175;51.186;0.276;2023-08-08T00:37:51;101312.19;;;21.66;50.97
64739;BME280;51175;51.186;0.276;2023-08-08T00:38:21;101316.78;;;21.66;51.13
64739;BME280;51175;51.186;0.276;2023-08-08T00:38:52;101321.06;;;21.67;51.23
64739;BME280;51175;51.186;0.276;2023-08-08T00:39:22;101324.84;;;21.66;51.22
64739;BME280;51175;51.186;0.276;2023-08-08T00:39:52;101317.56;;;21.66;51.14
64739;BME280;51175;51.186;0.276;2023-08-08T00:40:23;101317.56;;;21.66;50.96
64739;BME280;51175;51.186;0.276;2023-08-08T00:40:53;101316.78;;;21.66;51.04
64739;BME280;51175;51.186;0.276;2023-08-08T00:41:25;101319.47;;;21.66;51.25
64739;BME280;51175;51.186;0.276;2023-08-08T00:41:56;101322.47;;;21.64;50.91
64739;BME280;51175;51.186;0.276;2023-08-08T00:42:26;101322.78;;;21.63;51.11
64739;BME280;51175;51.186;0.276;2023-08-08T00:42:56;101318.50;;;21.62;51.32
64739;BME280;51175;51.186;0.276;2023-08-08T00:43:27;101317.41;;;21.63;51.11
64739;BME280;51175;51.186;0.276;2023-08-08T00:43:57;101315.03;;;21.61;51.22
64739;BME280;51175;51.186;0.276;2023-08-08T00:44:27;101313.13;;;21.62;50.96
64739;BME280;51175;51.186;0.276;2023-08-08T00:44:58;101308.88;;;21.61;51.17
64739;BME280;51175;51.186;0.276;2023-08-08T00:45:34;101309.97;;;21.59;50.94
64739;BME280;51175;51.186;0.276;2023-08-08T00:46:04;101306.50;;;21.59;51.12
64739;BME280;51175;51.186;0.276;2023-08-08T00:46:35;101322.63;;;21.59;50.88
64739;BME280;51175;51.186;0.276;2023-08-08T00:47:06;101313.78;;;21.58;51.13
64739;BME280;51175;51.186;0.276;2023-08-08T00:47:37;101310.28;;;21.58;51.05
64739;BME280;51175;51.186;0.276;2023-08-08T00:48:07;101304.13;;;21.57;51.00
64739;BME280;51175;51.186;0.276;2023-08-08T00:48:38;101310.28;;;21.58;51.01
64739;BME280;51175;51.186;0.276;2023-08-08T00:49:08;101307.59;;;21.58;51.06
64739;BME280;51175;51.186;0.276;2023-08-08T00:49:38;101306.81;;;21.57;50.91
64739;BME280;51175;51.186;0.276;2023-08-08T00:50:10;101309.81;;;21.56;51.02
64739;BME280;51175;51.186;0.276;2023-08-08T00:50:42;101311.41;;;21.57;51.02
64739;BME280;51175;51.186;0.276;2023-08-08T00:51:13;101306.34;;;21.55;50.93
64739;BME280;51175;51.186;0.276;2023-08-08T00:51:45;101297.16;;;21.56;51.08
64739;BME280;51175;51.186;0.276;2023-08-08T00:52:15;101298.28;;;21.55;51.11
64739;BME280;51175;51.186;0.276;2023-08-08T00:52:46;101300.97;;;21.55;50.89
64739;BME280;51175;51.186;0.276;2023-08-08T00:53:18;101297.47;;;21.55;50.88
64739;BME280;51175;51.186;0.276;2023-08-08T00:53:49;101303.66;;;21.55;51.17
64739;BME280;51175;51.186;0.276;2023-08-08T00:54:20;101300.97;;;21.55;50.98
64739;BME280;51175;51.186;0.276;2023-08-08T00:54:52;101290.53;;;21.54;50.92
64739;BME280;51175;51.186;0.276;2023-08-08T00:55:22;101299.09;;;21.56;51.03
64739;BME280;51175;51.186;0.276;2023-08-08T00:55:53;101291.34;;;21.54;50.93
64739;BME280;51175;51.186;0.276;2023-08-08T00:56:24;101293.22;;;21.54;50.83
64739;BME280;51175;51.186;0.276;2023-08-08T00:56:55;101299.41;;;21.54;50.98
64739;BME280;51175;51.186;0.276;2023-08-08T00:57:25;101292.41;;;21.53;50.99
64739;BME280;51175;51.186;0.276;2023-08-08T00:57:56;101294.34;;;21.53;50.76
64739;BME280;51175;51.186;0.276;2023-08-08T00:58:26;101294.34;;;21.53;50.86
64739;BME280;51175;51.186;0.276;2023-08-08T00:58:57;101290.84;;;21.52;50.93
64739;BME280;51175;51.186;0.276;2023-08-08T00:59:28;101289.72;;;21.53;51.13
64739;BME280;51175;51.186;0.276;2023-08-08T00:59:58;101296.22;;;21.52;50.68
64739;BME280;51175;51.186;0.276;2023-08-08T01:00:28;101291.66;;;21.53;51.11
64739;BME280;51175;51.186;0.276;2023-08-08T01:00:59;101283.91;;;21.51;51.03
64739;BME280;51175;51.186;0.276;2023-08-08T01:01:30;101281.53;;;21.50;50.85
64739;BME280;51175;51.186;0.276;2023-08-08T01:02:00;101287.69;;;21.50;50.94
64739;BME280;51175;51.186;0.276;2023-08-08T01:02:30;101287.69;;;21.50;50.94
64739;BME280;51175;51.186;0.276;2023-08-08T01:03:01;101284.97;;;21.50;50.99
64739;BME280;51175;51.186;0.276;2023-08-08T01:03:31;101290.34;;;21.50;50.89
64739;BME280;51175;51.186;0.276;2023-08-08T01:04:01;101287.69;;;21.50;50.87
64739;BME280;51175;51.186;0.276;2023-08-08T01:04:36;101282.63;;;21.49;50.89
64739;BME280;51175;51.186;0.276;2023-08-08T01:05:07;101285.31;;;21.49;50.80
64739;BME280;51175;51.186;0.276;2023-08-08T01:05:43;101280.72;;;21.49;50.99
64739;BME280;51175;51.186;0.276;2023-08-08T01:07:12;101281.03;;;21.48;50.82
64739;BME280;51175;51.186;0.276;2023-08-08T01:07:57;101274.88;;;21.47;50.76
64739;BME280;51175;51.186;0.276;2023-08-08T01:08:37;101285.63;;;21.47;50.75
64739;BME280;51175;51.186;0.276;2023-08-08T01:09:16;101277.09;;;21.45;50.98
64739;BME280;51175;51.186;0.276;2023-08-08T01:09:54;101283.25;;;21.45;50.99
64739;BME280;51175;51.186;0.276;2023-08-08T01:10:37;101279.00;;;21.44;51.03
64739;BME280;51175;51.186;0.276;2023-08-08T01:11:08;101282.00;;;21.43;51.20
64739;BME280;51175;51.186;0.276;2023-08-08T01:11:40;101282.00;;;21.43;50.93
64739;BME280;51175;51.186;0.276;2023-08-08T01:12:12;101279.63;;;21.41;50.81
64739;BME280;51175;51.186;0.276;2023-08-08T01:12:46;101278.50;;;21.42;50.88
64739;BME280;51175;51.186;0.276;2023-08-08T01:13:22;101277.72;;;21.42;51.06
64739;BME280;51175;51.186;0.276;2023-08-08T01:13:54;101280.41;;;21.42;50.88
64739;BME280;51175;51.186;0.276;2023-08-08T01:14:26;101279.63;;;21.41;50.94
64739;BME280;51175;51.186;0.276;2023-08-08T01:14:58;101282.31;;;21.41;50.88
64739;BME280;51175;51.186;0.276;2023-08-08T01:15:29;101276.94;;;21.41;51.06
64739;BME280;51175;51.186;0.276;2023-08-08T01:16:05;101283.41;;;21.40;51.12
64739;BME280;51175;51.186;0.276;2023-08-08T01:16:37;101277.25;;;21.40;51.05
64739;BME280;51175;51.186;0.276;2023-08-08T01:17:08;101283.41;;;21.40;50.77
64739;BME280;51175;51.186;0.276;2023-08-08T01:17:39;101285.31;;;21.40;50.86
64739;BME280;51175;51.186;0.276;2023-08-08T01:18:12;101282.31;;;21.41;50.81
64739;BME280;51175;51.186;0.276;2023-08-08T01:18:46;101281.50;;;21.41;50.95
64739;BME280;51175;51.186;0.276;2023-08-08T01:19:27;101275.34;;;21.40;51.02
64739;BME280;51175;51.186;0.276;2023-08-08T01:19:58;101281.03;;;21.39;50.80
64739;BME280;51175;51.186;0.276;2023-08-08T01:20:29;101282.13;;;21.38;51.04
64739;BME280;51175;51.186;0.276;2023-08-08T01:21:00;101280.25;;;21.38;50.93
64739;BME280;51175;51.186;0.276;2023-08-08T01:21:33;101280.25;;;21.38;51.06
64739;BME280;51175;51.186;0.276;2023-08-08T01:22:16;101282.94;;;21.38;50.93
64739;BME280;51175;51.186;0.276;2023-08-08T01:23:03;101282.13;;;21.38;50.83
64739;BME280;51175;51.186;0.276;2023-08-08T01:23:44;101275.19;;;21.37;50.82
64739;BME280;51175;51.186;0.276;2023-08-08T01:24:45;101279.00;;;21.36;51.18
64739;BME280;51175;51.186;0.276;2023-08-08T01:25:16;101281.69;;;21.36;51.12
64739;BME280;51175;51.186;0.276;2023-08-08T01:25:48;101280.06;;;21.34;50.88
64739;BME280;51175;51.186;0.276;2023-08-08T01:26:20;101278.50;;;21.33;50.88
64739;BME280;51175;51.186;0.276;2023-08-08T01:26:51;101274.69;;;21.34;50.92
64739;BME280;51175;51.186;0.276;2023-08-08T01:27:22;101280.88;;;21.35;50.98
64739;BME280;51175;51.186;0.276;2023-08-08T01:27:52;101276.63;;;21.34;51.04
64739;BME280;51175;51.186;0.276;2023-08-08T01:28:23;101279.31;;;21.34;50.78
64739;BME280;51175;51.186;0.276;2023-08-08T01:28:54;101284.69;;;21.34;50.70
64739;BME280;51175;51.186;0.276;2023-08-08T01:29:25;101277.38;;;21.34;50.92
64739;BME280;51175;51.186;0.276;2023-08-08T01:29:55;101279.31;;;21.34;51.18
64739;BME280;51175;51.186;0.276;2023-08-08T01:30:25;101278.50;;;21.33;51.03
64739;BME280;51175;51.186;0.276;2023-08-08T01:30:55;101277.69;;;21.33;50.97
64739;BME280;51175;51.186;0.276;2023-08-08T01:31:26;101276.91;;;21.32;51.21
64739;BME280;51175;51.186;0.276;2023-08-08T01:31:56;101272.34;;;21.33;51.15
64739;BME280;51175;51.186;0.276;2023-08-08T01:32:27;101272.34;;;21.33;51.13
64739;BME280;51175;51.186;0.276;2023-08-08T01:32:57;101272.34;;;21.33;50.97
64739;BME280;51175;51.186;0.276;2023-08-08T01:33:27;101272.34;;;21.33;50.49
64739;BME280;51175;51.186;0.276;2023-08-08T01:33:58;101274.22;;;21.32;50.94
64739;BME280;51175;51.186;0.276;2023-08-08T01:34:28;101276.13;;;21.32;51.12
64739;BME280;51175;51.186;0.276;2023-08-08T01:34:59;101278.81;;;21.32;50.86
64739;BME280;51175;51.186;0.276;2023-08-08T01:35:31;101275.34;;;21.31;51.32
64739;BME280;51175;51.186;0.276;2023-08-08T01:36:07;101279.59;;;21.32;51.07
64739;BME280;51175;51.186;0.276;2023-08-08T01:36:55;101271.84;;;21.31;50.80
64739;BME280;51175;51.186;0.276;2023-08-08T01:37:32;101281.81;;;21.30;50.93
64739;BME280;51175;51.186;0.276;2023-08-08T01:38:14;101274.84;;;21.29;51.10
64739;BME280;51175;51.186;0.276;2023-08-08T01:38:48;101267.09;;;21.28;51.20
64739;BME280;51175;51.186;0.276;2023-08-08T01:39:30;101276.28;;;21.27;50.81
64739;BME280;51175;51.186;0.276;2023-08-08T01:40:00;101270.91;;;21.27;51.12
64739;BME280;51175;51.186;0.276;2023-08-08T01:40:32;101273.91;;;21.25;50.91
64739;BME280;51175;51.186;0.276;2023-08-08T01:41:04;101270.91;;;21.27;51.07
64739;BME280;51175;51.186;0.276;2023-08-08T01:41:38;101274.38;;;21.27;50.87
64739;BME280;51175;51.186;0.276;2023-08-08T01:42:10;101272.78;;;21.26;51.06
64739;BME280;51175;51.186;0.276;2023-08-08T01:42:44;101272.00;;;21.26;51.04
64739;BME280;51175;51.186;0.276;2023-08-08T01:43:16;101271.22;;;21.25;51.26
64739;BME280;51175;51.186;0.276;2023-08-08T01:43:48;101271.22;;;21.25;50.90
64739;BME280;51175;51.186;0.276;2023-08-08T01:44:20;101277.69;;;21.24;51.25
64739;BME280;51175;51.186;0.276;2023-08-08T01:44:54;101280.38;;;21.24;50.81
64739;BME280;51175;51.186;0.276;2023-08-08T01:45:25;101271.53;;;21.24;50.82
64739;BME280;51175;51.186;0.276;2023-08-08T01:45:56;101270.72;;;21.23;50.87
64739;BME280;51175;51.186;0.276;2023-08-08T01:46:27;101273.09;;;21.25;50.85
64739;BME280;51175;51.186;0.276;2023-08-08T01:46:58;101270.72;;;21.23;51.21
64739;BME280;51175;51.186;0.276;2023-08-08T01:47:29;101275.31;;;21.23;50.88
64739;BME280;51175;51.186;0.276;2023-08-08T01:48:00;101270.72;;;21.23;51.10
64739;BME280;51175;51.186;0.276;2023-08-08T01:48:35;101267.28;;;21.23;50.87
64739;BME280;51175;51.186;0.276;2023-08-08T01:49:06;101270.72;;;21.23;50.80
64739;BME280;51175;51.186;0.276;2023-08-08T01:49:36;101269.97;;;21.23;51.17
64739;BME280;51175;51.186;0.276;2023-08-08T01:50:07;101269.16;;;21.22;51.03
64739;BME280;51175;51.186;0.276;2023-08-08T01:50:37;101271.84;;;21.22;51.13
64739;BME280;51175;51.186;0.276;2023-08-08T01:51:08;101269.16;;;21.22;50.90
64739;BME280;51175;51.186;0.276;2023-08-08T01:51:38;101269.16;;;21.22;50.92
64739;BME280;51175;51.186;0.276;2023-08-08T01:52:08;101271.03;;;21.21;51.05
64739;BME280;51175;51.186;0.276;2023-08-08T01:52:39;101263.78;;;21.22;50.93
64739;BME280;51175;51.186;0.276;2023-08-08T01:53:09;101265.97;;;21.20;50.94
64739;BME280;51175;51.186;0.276;2023-08-08T01:53:40;101267.59;;;21.21;51.08
64739;BME280;51175;51.186;0.276;2023-08-08T01:54:10;101267.59;;;21.21;50.96
64739;BME280;51175;51.186;0.276;2023-08-08T01:54:40;101265.66;;;21.21;50.84
64739;BME280;51175;51.186;0.276;2023-08-08T01:55:12;101268.34;;;21.21;51.13
64739;BME280;51175;51.186;0.276;2023-08-08T01:55:43;101271.84;;;21.22;51.06
64739;BME280;51175;51.186;0.276;2023-08-08T01:56:13;101268.34;;;21.21;51.04
64739;BME280;51175;51.186;0.276;2023-08-08T01:56:43;101262.22;;;21.21;50.90
64739;BME280;51175;51.186;0.276;2023-08-08T01:57:14;101267.59;;;21.21;51.15
64739;BME280;51175;51.186;0.276;2023-08-08T01:57:44;101268.34;;;21.21;50.96
64739;BME280;51175;51.186;0.276;2023-08-08T01:58:14;101265.97;;;21.20;50.85
64739;BME280;51175;51.186;0.276;2023-08-08T01:58:45;101269.47;;;21.20;50.83
64739;BME280;51175;51.186;0.276;2023-08-08T01:59:15;101271.66;;;21.18;50.93
64739;BME280;51175;51.186;0.276;2023-08-08T01:59:46;101264.41;;;21.19;51.07
64739;BME280;51175;51.186;0.276;2023-08-08T02:00:16;101267.09;;;21.19;51.05
64739;BME280;51175;51.186;0.276;2023-08-08T02:00:47;101269.78;;;21.19;50.87
64739;BME280;51175;51.186;0.276;2023-08-08T02:01:18;101266.28;;;21.18;51.10
64739;BME280;51175;51.186;0.276;2023-08-08T02:01:48;101267.91;;;21.19;51.05
64739;BME280;51175;51.186;0.276;2023-08-08T02:02:18;101270.91;;;21.18;50.91
64739;BME280;51175;51.186;0.276;2023-08-08T02:02:49;101268.22;;;21.18;50.97
64739;BME280;51175;51.186;0.276;2023-08-08T02:03:19;101270.91;;;21.18;50.94
64739;BME280;51175;51.186;0.276;2023-08-08T02:03:49;101269.28;;;21.17;50.79
64739;BME280;51175;51.186;0.276;2023-08-08T02:04:20;101258.88;;;21.15;50.67
64739;BME280;51175;51.186;0.276;2023-08-08T02:04:50;101271.97;;;21.17;51.03
64739;BME280;51175;51.186;0.276;2023-08-08T02:05:20;101266.16;;;21.15;50.91
64739;BME280;51175;51.186;0.276;2023-08-08T02:05:51;101264.22;;;21.15;50.83
64739;BME280;51175;51.186;0.276;2023-08-08T02:06:21;101266.16;;;21.15;50.94
64739;BME280;51175;51.186;0.276;2023-08-08T02:06:52;101258.09;;;21.15;50.84
64739;BME280;51175;51.186;0.276;2023-08-08T02:07:22;101268.03;;;21.14;51.05
64739;BME280;51175;51.186;0.276;2023-08-08T02:07:52;101268.84;;;21.15;51.02
64739;BME280;51175;51.186;0.276;2023-08-08T02:08:23;101269.91;;;21.14;51.05
64739;BME280;51175;51.186;0.276;2023-08-08T02:08:53;101271.03;;;21.13;51.04
64739;BME280;51175;51.186;0.276;2023-08-08T02:09:23;101272.59;;;21.14;50.85
64739;BME280;51175;51.186;0.276;2023-08-08T02:09:54;101269.91;;;21.14;50.90
64739;BME280;51175;51.186;0.276;2023-08-08T02:10:24;101268.34;;;21.13;51.01
64739;BME280;51175;51.186;0.276;2023-08-08T02:10:55;101278.28;;;21.12;50.76
64739;BME280;51175;51.186;0.276;2023-08-08T02:11:25;101276.41;;;21.13;50.77
64739;BME280;51175;51.186;0.276;2023-08-08T02:11:55;101278.28;;;21.12;50.95
64739;BME280;51175;51.186;0.276;2023-08-08T02:12:26;101274.84;;;21.12;50.89
64739;BME280;51175;51.186;0.276;2023-08-08T02:12:56;101280.97;;;21.12;50.89
64739;BME280;51175;51.186;0.276;2023-08-08T02:13:26;101281.28;;;21.11;50.98
64739;BME280;51175;51.186;0.276;2023-08-08T02:13:57;101270.53;;;21.11;50.92
64739;BME280;51175;51.186;0.276;2023-08-08T02:14:27;101279.41;;;21.11;50.90
64739;BME280;51175;51.186;0.276;2023-08-08T02:14:58;101275.91;;;21.11;50.95
64739;BME280;51175;51.186;0.276;2023-08-08T02:15:28;101271.66;;;21.09;50.80
64739;BME280;51175;51.186;0.276;2023-08-08T02:15:58;101274.34;;;21.09;51.06
64739;BME280;51175;51.186;0.276;2023-08-08T02:16:29;101268.97;;;21.09;50.76
64739;BME280;51175;51.186;0.276;2023-08-08T02:16:59;101277.03;;;21.09;50.96
64739;BME280;51175;51.186;0.276;2023-08-08T02:17:29;101273.53;;;21.09;50.71
64739;BME280;51175;51.186;0.276;2023-08-08T02:18:00;101273.53;;;21.09;50.81
64739;BME280;51175;51.186;0.276;2023-08-08T02:18:31;101273.53;;;21.09;50.87
64739;BME280;51175;51.186;0.276;2023-08-08T02:19:01;101277.84;;;21.10;50.98
64739;BME280;51175;51.186;0.276;2023-08-08T02:19:31;101276.22;;;21.09;50.95
64739;BME280;51175;51.186;0.276;2023-08-08T02:20:02;101279.72;;;21.09;51.00
64739;BME280;51175;51.186;0.276;2023-08-08T02:20:33;101278.16;;;21.08;50.95
64739;BME280;51175;51.186;0.276;2023-08-08T02:21:03;101271.97;;;21.08;51.01
64739;BME280;51175;51.186;0.276;2023-08-08T02:21:34;101271.16;;;21.07;50.82
64739;BME280;51175;51.186;0.276;2023-08-08T02:22:04;101279.22;;;21.07;50.93
64739;BME280;51175;51.186;0.276;2023-08-08T02:22:35;101276.53;;;21.07;51.10
64739;BME280;51175;51.186;0.276;2023-08-08T02:23:05;101275.78;;;21.07;50.82
64739;BME280;51175;51.186;0.276;2023-08-08T02:23:35;101275.78;;;21.07;51.07
64739;BME280;51175;51.186;0.276;2023-08-08T02:24:06;101274.97;;;21.06;51.07
64739;BME280;51175;51.186;0.276;2023-08-08T02:24:36;101274.16;;;21.06;50.74
64739;BME280;51175;51.186;0.276;2023-08-08T02:25:07;101274.16;;;21.06;50.83
64739;BME280;51175;51.186;0.276;2023-08-08T02:25:37;101276.09;;;21.05;50.98
64739;BME280;51175;51.186;0.276;2023-08-08T02:26:08;101274.47;;;21.04;50.74
64739;BME280;51175;51.186;0.276;2023-08-08T02:26:38;101277.97;;;21.05;50.73
64739;BME280;51175;51.186;0.276;2023-08-08T02:27:09;101277.97;;;21.05;50.96
64739;BME280;51175;51.186;0.276;2023-08-08T02:27:39;101274.47;;;21.04;50.69
64739;BME280;51175;51.186;0.276;2023-08-08T02:28:09;101277.16;;;21.04;50.75
64739;BME280;51175;51.186;0.276;2023-08-08T02:28:40;101269.09;;;21.04;50.78
64739;BME280;51175;51.186;0.276;2023-08-08T02:29:11;101272.91;;;21.03;50.68
64739;BME280;51175;51.186;0.276;2023-08-08T02:29:41;101268.34;;;21.04;51.14
64739;BME280;51175;51.186;0.276;2023-08-08T02:30:12;101274.47;;;21.04;50.97
64739;BME280;51175;51.186;0.276;2023-08-08T02:30:43;101277.16;;;21.04;50.81
64739;BME280;51175;51.186;0.276;2023-08-08T02:31:13;101270.22;;;21.03;50.76
64739;BME280;51175;51.186;0.276;2023-08-08T02:31:50;101274.03;;;21.02;50.79
64739;BME280;51175;51.186;0.276;2023-08-08T02:32:20;101268.66;;;21.02;50.94
64739;BME280;51175;51.186;0.276;2023-08-08T02:32:51;101269.72;;;21.01;50.86
64739;BME280;51175;51.186;0.276;2023-08-08T02:33:21;101270.84;;;21.00;50.89
64739;BME280;51175;51.186;0.276;2023-08-08T02:33:51;101267.06;;;21.01;50.91
64739;BME280;51175;51.186;0.276;2023-08-08T02:34:22;101269.72;;;21.01;50.87
64739;BME280;51175;51.186;0.276;2023-08-08T02:34:52;101267.06;;;21.01;50.73
64739;BME280;51175;51.186;0.276;2023-08-08T02:35:23;101266.28;;;21.01;51.08
64739;BME280;51175;51.186;0.276;2023-08-08T02:35:53;101268.16;;;21.00;50.97
64739;BME280;51175;51.186;0.276;2023-08-08T02:36:23;101270.84;;;21.00;50.70
64739;BME280;51175;51.186;0.276;2023-08-08T02:36:54;101270.06;;;21.00;51.03
64739;BME280;51175;51.186;0.276;2023-08-08T02:37:24;101269.25;;;20.99;51.04
64739;BME280;51175;51.186;0.276;2023-08-08T02:37:55;101270.06;;;21.00;50.99
64739;BME280;51175;51.186;0.276;2023-08-08T02:38:25;101268.47;;;20.99;50.78
64739;BME280;51175;51.186;0.276;2023-08-08T02:38:55;101271.16;;;20.99;50.80
64739;BME280;51175;51.186;0.276;2023-08-08T02:39:26;101264.19;;;20.98;50.87
64739;BME280;51175;51.186;0.276;2023-08-08T02:39:56;101275.72;;;20.98;50.80
64739;BME280;51175;51.186;0.276;2023-08-08T02:40:26;101271.94;;;20.99;50.92
64739;BME280;51175;51.186;0.276;2023-08-08T02:40:57;101276.53;;;20.99;50.79
64739;BME280;51175;51.186;0.276;2023-08-08T02:41:27;101278.41;;;20.98;50.92
64739;BME280;51175;51.186;0.276;2023-08-08T02:41:58;101269.56;;;20.98;50.76
64739;BME280;51175;51.186;0.276;2023-08-08T02:42:28;101273.03;;;20.98;50.91
64739;BME280;51175;51.186;0.276;2023-08-08T02:42:58;101272.25;;;20.98;50.90
64739;BME280;51175;51.186;0.276;2023-08-08T02:43:29;101270.66;;;20.96;50.70
64739;BME280;51175;51.186;0.276;2023-08-08T02:43:59;101269.88;;;20.96;50.79
64739;BME280;51175;51.186;0.276;2023-08-08T02:44:29;101268.00;;;20.96;50.79
64739;BME280;51175;51.186;0.276;2023-08-08T02:45:00;101267.19;;;20.96;50.76